Fort Worth - NOAA's Hourly Summary for Tuesday, May 15, 2018
Hour Temp
(f)
RH
(%)
Solar Rad.
(MJ/m2)
Rainfall
(in)
Wind
(mph)
5/15/2018 12:00 AM 78 65 0 0 4.48
5/15/2018 1:00 AM 78 67 0 0 3.61
5/15/2018 2:00 AM 77 69 0 0 4.36
5/15/2018 3:00 AM 76 71 0 0 3.28
5/15/2018 4:00 AM 76 73 0 0 3.1
5/15/2018 5:00 AM 76 74 0 0 3.72
5/15/2018 6:00 AM 76 74 0 0 3.23
5/15/2018 7:00 AM 76 75 0.14 0 3.73
5/15/2018 8:00 AM 76 75 0.46 0 3.75
5/15/2018 9:00 AM 77 74 0.59 0 4.45
5/15/2018 10:00 AM 78 72 1.51 0 8.41
5/15/2018 11:00 AM 80 70 2.39 0 9.76
5/15/2018 12:00 PM 82 64 2.92 0 8.32
5/15/2018 1:00 PM 83 62 3.1 0 9.16
5/15/2018 2:00 PM 84 60 3.09 0 7.95
5/15/2018 3:00 PM 85 56 2.36 0 8.06
5/15/2018 4:00 PM 85 55 0.64 0 8.05
5/15/2018 5:00 PM 84 55 0.2 0 5.3
5/15/2018 6:00 PM 84 55 1.06 0 4.96
5/15/2018 7:00 PM 83 55 0.16 0 6.09
5/15/2018 8:00 PM 81 58 0.03 0 5.43
5/15/2018 9:00 PM 78 60 0 0 5.91
5/15/2018 10:00 PM 77 62 0 0 5.62
5/15/2018 11:00 PM 76 65 0 0 3.84
Data Summary 79 65 18.65 0.00 5.61